SKCLSKPS

Guest
Details From SKCL - ALFONSO BONILLA ARAGON INTL
To SKPS - PASTO - ANTONIO NARINO
Flight Number -
Tags generated
Created
Modified
Stats Distance 140 nm / 259 km
Max Altitude 14,600 ft / 4,450 m
Waypoints 5
Social Downloads 1
Likes 0
Share VATSIM

Download

Looking for another format? Having issues loading an existing format? Contact us
Advertisement - Login to hide

Notes

Basic altitude profile: - Ascent Rate: 2500ft/min - Ascent Speed: 250kts - Cruise Altitude: 35000ft - Cruise Speed: 420kts - Descent Rate: 1500ft/min - Descent Speed: 250kts Options: - Use NATs: yes - Use PACOTS: yes - Use low airways: yes - Use high airways: yes

Route

SKCL ANKAS G675 PSO SKPS

ID Type Via Altitude Latitude Longitude Leg Dist Tot Dist Heading (true) Name
O SKCL APT - 0 ft / 0 m 3.54322˚ -76.38159˚ - 0 nm - ALFONSO BONILLA ARAGON INTL
ANKAS FIX - 14,600 ft / 4,450 m 2.44500˚ -76.84778˚ 71 nm 71 nm 203° / 203° -
MER VOR G675 (AWY-LO) 9,500 ft / 2,896 m 1.78833˚ -77.15083˚ 43 nm 115 nm 205° / 205° MERCADERES VOR-DME
PSO VOR G675 (AWY-LO) 10,500 ft / 3,200 m 1.39799˚ -77.28987˚ 24 nm 139 nm 200° / 200° PASTO VOR-DME
O SKPS APT - 0 ft / 0 m 1.39625˚ -77.29148˚ 0 nm 140 nm 223° / 223° PASTO - ANTONIO NARINO

Altitude Profile

Advertisement - Login to hide

SKCL

Details ICAO SKCL (CLO)
Name ALFONSO BONILLA ARAGON INTL
Region Colombia
Timezone America/Bogota (UTC-5.0)
Stats Elevation 3,162 ft / 964 m (AMSL)
Location 3.543221° -76.381587°
Runways 1
Magnetic Variation 5.581° W

METAR

SKCL 111900Z 22005KT 190V300 9000 SCT015 BKN120 23/20 A2999 RMKHZ

Decode

TAF

Not found

Departure Runways

ID Width Length Bearing (true) Bearing (mag) Surface Threshold Offset Overrun Length
01 148 ft / 45 m 9,869 ft / 3,008 m 9.91° 15.49° Asphalt 0 ft / 0 m 50 ft / 15 m
19 148 ft / 45 m 9,869 ft / 3,008 m 189.91° 195.49° Asphalt 0 ft / 0 m 65 ft / 20 m

SKPS

Details ICAO SKPS (PSO)
Name PASTO - ANTONIO NARINO
Region Colombia
Timezone America/Bogota (UTC-5.0)
Stats Elevation 5,951 ft / 1,814 m (AMSL)
Location 1.396246° -77.291477°
Runways 1
Magnetic Variation 4.599° W

METAR

SKPS 111900Z 35005KT 5000 BCFG BKN015 BKN080 19/17 A3015 RMK AD OPER IMC

Decode

TAF

Not found

Destination Runways

ID Width Length Bearing (true) Bearing (mag) Surface Threshold Offset Overrun Length
02 130 ft / 40 m 7,624 ft / 2,324 m 15.86° 20.46° Asphalt 200 ft / 61 m 200 ft / 61 m
20 130 ft / 40 m 7,624 ft / 2,324 m 195.86° 200.46° Asphalt 170 ft / 52 m 0 ft / 0 m

Approach Navaids

Runway Type Ident Frequency Range Bearing (true) Bearing (mag) Slope Elevation
20 Localiser IPSO 110.70 MHz 18 nm / 33 km 195.86° 200.46° - 5,951 ft / 1,814 m (AMSL)
20 DME IPSO 110.70 MHz 18 nm / 33 km - - - 5,951 ft / 1,814 m (AMSL)

Popular Alternatives